Time;durP1;ratioP1;P1;durP2;ratioP2;P2;SDS_P1;SDS_P2;PMS_P1;PMS_P2;Temp;Humidity;BMP_temperature;BMP_pressure;BME280_temperature;BME280_humidity;BME280_pressure;Samples;Min_cycle;Max_cycle;Signal;HPM_P1;HPM_P2
2023/08/03 00:00:20;;;;;;;8.73;2.38;;;15.60;99.90;;;;;;5067228;28;20040;-64
2023/08/03 00:02:46;;;;;;;12.18;2.70;;;15.60;99.90;;;;;;5049363;28;20057;-64
2023/08/03 00:05:16;;;;;;;10.07;3.00;;;15.60;99.90;;;;;;5067098;28;20080;-65
2023/08/03 00:07:43;;;;;;;12.43;3.22;;;15.60;99.90;;;;;;5048802;28;20040;-62
2023/08/03 00:10:09;;;;;;;11.95;3.08;;;15.60;99.90;;;;;;5054816;28;20499;-62
2023/08/03 00:12:34;;;;;;;13.02;3.17;;;15.60;99.90;;;;;;5028878;28;20047;-62
2023/08/03 00:15:00;;;;;;;19.80;4.07;;;15.60;99.90;;;;;;5047992;28;20091;-60
2023/08/03 00:17:25;;;;;;;16.92;3.75;;;15.70;99.90;;;;;;5048085;28;20048;-61
2023/08/03 00:19:51;;;;;;;19.60;4.60;;;15.60;99.90;;;;;;5063754;28;20044;-62
2023/08/03 00:22:17;;;;;;;11.77;3.03;;;15.60;99.90;;;;;;5062948;28;20035;-64
2023/08/03 00:24:42;;;;;;;11.60;2.60;;;15.60;99.90;;;;;;5037264;28;20434;-64
2023/08/03 00:27:08;;;;;;;15.70;2.90;;;15.60;99.90;;;;;;5065519;28;20037;-65
2023/08/03 00:29:34;;;;;;;9.80;2.80;;;15.70;99.90;;;;;;5031618;28;20037;-61
2023/08/03 00:32:00;;;;;;;13.85;3.67;;;15.70;99.90;;;;;;5049500;28;20131;-58
2023/08/03 00:34:27;;;;;;;10.93;2.90;;;15.70;99.90;;;;;;5029783;28;20128;-62
2023/08/03 00:36:52;;;;;;;9.45;2.53;;;15.70;99.90;;;;;;5060667;28;20488;-62
2023/08/03 00:39:18;;;;;;;9.05;3.35;;;15.60;99.90;;;;;;5066264;28;20055;-63
2023/08/03 00:41:44;;;;;;;12.52;3.20;;;15.70;99.90;;;;;;5048744;28;20526;-63
2023/08/03 00:44:09;;;;;;;15.15;4.10;;;15.70;99.90;;;;;;5049621;28;20044;-63
2023/08/03 00:46:35;;;;;;;9.68;3.70;;;15.70;99.90;;;;;;5047986;28;20044;-62
2023/08/03 00:49:01;;;;;;;12.98;4.00;;;15.70;99.90;;;;;;5047180;28;20044;-63
2023/08/03 00:51:27;;;;;;;22.42;4.40;;;15.70;99.90;;;;;;5048009;28;20111;-61
2023/08/03 00:53:54;;;;;;;9.27;3.33;;;15.70;99.90;;;;;;5065878;28;20055;-61
2023/08/03 00:56:20;;;;;;;10.68;4.18;;;15.70;99.90;;;;;;5064777;28;20048;-62
2023/08/03 00:58:46;;;;;;;10.18;3.85;;;15.70;99.90;;;;;;5065900;28;20051;-62
2023/08/03 01:01:14;;;;;;;9.57;3.63;;;15.70;99.90;;;;;;5066043;28;20043;-62
2023/08/03 01:03:41;;;;;;;7.70;3.33;;;15.70;99.90;;;;;;5016108;28;20044;-63
2023/08/03 01:06:06;;;;;;;15.05;4.07;;;15.80;99.90;;;;;;5047328;28;20055;-62
2023/08/03 01:08:32;;;;;;;13.57;3.15;;;15.80;99.90;;;;;;5065399;28;20044;-60
2023/08/03 01:10:58;;;;;;;10.63;3.88;;;15.80;99.90;;;;;;5045849;28;20049;-60
2023/08/03 01:13:24;;;;;;;12.77;3.35;;;15.80;99.90;;;;;;5031663;28;20071;-60
2023/08/03 01:15:50;;;;;;;12.75;3.75;;;15.80;99.90;;;;;;5065575;28;20071;-59
2023/08/03 01:18:16;;;;;;;10.30;4.22;;;15.80;99.90;;;;;;5048474;28;20048;-59
2023/08/03 01:20:42;;;;;;;12.90;3.42;;;15.80;99.90;;;;;;5065626;28;20151;-60
2023/08/03 01:23:08;;;;;;;12.15;3.63;;;15.80;99.90;;;;;;5065114;28;20075;-61
2023/08/03 01:25:35;;;;;;;12.10;3.45;;;15.80;99.90;;;;;;5064965;28;20072;-60
2023/08/03 01:28:03;;;;;;;11.98;4.18;;;15.80;99.90;;;;;;5064273;28;20040;-61
2023/08/03 01:30:29;;;;;;;16.10;4.18;;;15.80;99.90;;;;;;5047747;28;20325;-62
2023/08/03 01:32:55;;;;;;;12.65;3.35;;;15.80;99.90;;;;;;5048339;28;20036;-61
2023/08/03 01:35:21;;;;;;;13.45;3.38;;;15.80;99.90;;;;;;5063780;28;20040;-62
2023/08/03 01:37:47;;;;;;;13.80;3.17;;;15.80;99.90;;;;;;5064172;28;20052;-62
2023/08/03 01:40:13;;;;;;;9.60;2.92;;;15.80;99.90;;;;;;5064467;28;20063;-60
2023/08/03 01:42:39;;;;;;;8.60;2.53;;;15.80;99.90;;;;;;5064756;28;20500;-58
2023/08/03 01:45:08;;;;;;;12.45;3.40;;;15.80;99.90;;;;;;5067110;28;20452;-60
2023/08/03 01:47:34;;;;;;;16.48;3.97;;;15.80;99.90;;;;;;5053796;28;20041;-59
2023/08/03 01:49:59;;;;;;;10.73;3.55;;;15.80;99.90;;;;;;5045121;28;20538;-60
2023/08/03 01:52:25;;;;;;;11.18;2.70;;;15.80;99.90;;;;;;5066600;28;20061;-59
2023/08/03 01:54:51;;;;;;;14.57;3.22;;;15.80;99.90;;;;;;5047514;28;20232;-59
2023/08/03 01:57:17;;;;;;;10.82;2.13;;;15.70;99.90;;;;;;5064794;28;20632;-59
2023/08/03 01:59:46;;;;;;;7.25;2.20;;;15.70;99.90;;;;;;5066054;28;20040;-61
2023/08/03 02:02:12;;;;;;;5.93;1.80;;;15.70;99.90;;;;;;5066389;28;20079;-61
2023/08/03 02:04:38;;;;;;;9.27;1.92;;;15.70;99.90;;;;;;5065119;28;20486;-63
2023/08/03 02:07:16;;;;;;;6.85;1.65;;;15.70;99.90;;;;;;5064678;28;20071;-61
2023/08/03 02:09:41;;;;;;;10.10;2.40;;;15.80;99.90;;;;;;5056823;28;20500;-62
2023/08/03 02:12:07;;;;;;;4.53;1.83;;;15.80;99.90;;;;;;5043783;28;20134;-61
2023/08/03 02:14:33;;;;;;;8.15;2.28;;;15.80;99.90;;;;;;5045705;28;20043;-60
2023/08/03 02:16:59;;;;;;;11.57;2.40;;;15.80;99.90;;;;;;5064956;28;20040;-61
2023/08/03 02:19:24;;;;;;;6.85;1.92;;;15.80;99.90;;;;;;5047258;28;20468;-62
2023/08/03 02:21:50;;;;;;;4.93;1.33;;;15.80;99.90;;;;;;5064652;28;20036;-62
2023/08/03 02:24:15;;;;;;;4.68;1.55;;;15.80;99.90;;;;;;5042372;28;20033;-61
2023/08/03 02:26:41;;;;;;;6.40;1.92;;;15.90;99.90;;;;;;5024893;28;20048;-62
2023/08/03 02:29:07;;;;;;;6.50;1.73;;;15.90;99.90;;;;;;5043848;28;20040;-63
2023/08/03 02:31:32;;;;;;;8.13;2.00;;;15.90;99.90;;;;;;5063428;28;20036;-64
2023/08/03 02:33:58;;;;;;;6.10;1.58;;;15.80;99.90;;;;;;5029577;28;20097;-65
2023/08/03 02:36:23;;;;;;;5.05;1.70;;;15.90;99.90;;;;;;5046265;28;20047;-64
2023/08/03 02:38:49;;;;;;;5.30;1.88;;;15.80;99.90;;;;;;5044615;28;20055;-65
2023/08/03 02:41:14;;;;;;;7.05;2.08;;;15.90;99.90;;;;;;5043213;28;20048;-63
2023/08/03 02:43:40;;;;;;;9.52;2.40;;;15.90;99.90;;;;;;5043022;28;20041;-64
2023/08/03 02:46:06;;;;;;;6.43;1.70;;;15.90;99.90;;;;;;5026767;28;20033;-66
2023/08/03 02:48:32;;;;;;;6.53;1.80;;;15.90;99.90;;;;;;5045386;28;20040;-66
2023/08/03 02:50:57;;;;;;;6.38;2.40;;;15.90;99.90;;;;;;5044920;28;20044;-66
2023/08/03 02:53:23;;;;;;;5.45;2.20;;;15.90;99.90;;;;;;5042656;28;20068;-68
2023/08/03 02:55:50;;;;;;;7.50;2.35;;;15.80;99.90;;;;;;5041886;28;20044;-67
2023/08/03 02:58:15;;;;;;;6.97;2.58;;;15.80;99.90;;;;;;5045791;28;20046;-65
2023/08/03 03:00:41;;;;;;;7.60;2.80;;;15.80;99.90;;;;;;5046469;28;20648;-65
2023/08/03 03:03:07;;;;;;;9.38;2.85;;;15.80;99.90;;;;;;5064593;28;20079;-67
2023/08/03 03:05:32;;;;;;;7.40;3.03;;;15.80;99.90;;;;;;5064613;28;20128;-66
2023/08/03 03:07:58;;;;;;;8.43;2.70;;;15.80;99.90;;;;;;5045111;28;20125;-65
2023/08/03 03:10:23;;;;;;;6.32;2.88;;;15.90;99.90;;;;;;5045528;28;20040;-67
2023/08/03 03:12:49;;;;;;;9.55;2.80;;;15.80;99.90;;;;;;5061821;28;20035;-64
2023/08/03 03:15:15;;;;;;;6.53;2.50;;;15.80;99.90;;;;;;5046786;28;20586;-65
2023/08/03 03:17:42;;;;;;;5.65;2.47;;;15.80;99.90;;;;;;5045932;28;20089;-67
2023/08/03 03:20:08;;;;;;;8.90;3.28;;;15.80;99.90;;;;;;5063943;28;20040;-66
2023/08/03 03:22:35;;;;;;;6.65;2.92;;;15.80;99.90;;;;;;5046063;28;20048;-65
2023/08/03 03:25:02;;;;;;;9.35;3.22;;;15.80;99.90;;;;;;5063830;28;20154;-70
2023/08/03 03:27:28;;;;;;;7.93;3.08;;;15.80;99.90;;;;;;5064613;28;20075;-69
2023/08/03 03:29:53;;;;;;;7.88;3.45;;;15.80;99.90;;;;;;5064004;28;20071;-69
2023/08/03 03:32:19;;;;;;;9.10;3.42;;;15.90;99.90;;;;;;5064602;28;20040;-68
2023/08/03 03:34:45;;;;;;;9.02;3.78;;;15.80;99.90;;;;;;5046138;28;20044;-67
2023/08/03 03:37:10;;;;;;;8.68;3.65;;;15.80;99.90;;;;;;5054279;28;20126;-68
2023/08/03 03:39:36;;;;;;;7.00;3.80;;;15.80;99.90;;;;;;5051886;28;20072;-65
2023/08/03 03:42:01;;;;;;;10.60;3.95;;;15.80;99.90;;;;;;5063180;28;20085;-63
2023/08/03 03:44:27;;;;;;;9.30;4.70;;;15.80;99.90;;;;;;5063790;28;20177;-68
2023/08/03 03:46:52;;;;;;;8.70;4.50;;;15.80;99.90;;;;;;5064246;28;20429;-66
2023/08/03 03:49:18;;;;;;;10.20;5.03;;;15.80;99.90;;;;;;5063546;28;20506;-70
2023/08/03 03:51:43;;;;;;;10.85;4.68;;;15.80;99.90;;;;;;5045815;28;20080;-67
2023/08/03 03:54:09;;;;;;;11.23;4.88;;;15.80;99.90;;;;;;5045533;28;20120;-67
2023/08/03 03:56:38;;;;;;;9.77;5.63;;;15.80;99.90;;;;;;5062477;28;20045;-67
2023/08/03 03:59:03;;;;;;;12.77;6.05;;;15.80;99.90;;;;;;5063516;28;20044;-65
2023/08/03 04:01:29;;;;;;;11.45;5.75;;;15.80;99.90;;;;;;5045718;28;20060;-59
2023/08/03 04:03:55;;;;;;;9.43;6.30;;;15.90;99.90;;;;;;5044211;28;20041;-66
2023/08/03 04:06:20;;;;;;;15.80;6.38;;;15.90;99.90;;;;;;5043592;28;20086;-62
2023/08/03 04:08:46;;;;;;;13.57;7.25;;;15.80;99.90;;;;;;5041870;28;20056;-64
2023/08/03 04:11:12;;;;;;;15.02;8.20;;;15.90;99.90;;;;;;5062389;28;20048;-67
2023/08/03 04:13:37;;;;;;;16.48;7.50;;;15.90;99.90;;;;;;5063408;28;20536;-65
2023/08/03 04:16:03;;;;;;;20.05;8.73;;;15.90;99.90;;;;;;5045880;28;20586;-62
2023/08/03 04:18:29;;;;;;;20.30;10.27;;;15.90;99.90;;;;;;5012005;28;20049;-66
2023/08/03 04:20:55;;;;;;;14.48;9.07;;;15.90;99.90;;;;;;5063570;28;20048;-64
2023/08/03 04:23:20;;;;;;;21.52;10.20;;;15.90;99.90;;;;;;5064741;28;20044;-66
2023/08/03 04:25:46;;;;;;;17.98;9.38;;;16.00;99.90;;;;;;5048286;28;20051;-64
2023/08/03 04:28:11;;;;;;;18.20;9.35;;;15.90;99.90;;;;;;5066771;28;20036;-64
2023/08/03 04:30:37;;;;;;;17.75;9.48;;;15.90;99.90;;;;;;5032740;28;20040;-65
2023/08/03 04:33:02;;;;;;;21.23;10.40;;;15.90;99.90;;;;;;5067550;28;20633;-67
2023/08/03 04:35:28;;;;;;;22.80;10.25;;;15.90;99.90;;;;;;5049106;28;20529;-66
2023/08/03 04:37:54;;;;;;;22.42;9.32;;;15.90;99.90;;;;;;5048004;28;20036;-64
2023/08/03 04:40:19;;;;;;;22.42;9.68;;;15.90;99.90;;;;;;5066000;28;20511;-67
2023/08/03 04:42:45;;;;;;;24.05;8.77;;;15.90;99.90;;;;;;5047562;28;20135;-66
2023/08/03 04:45:10;;;;;;;20.70;9.65;;;15.90;99.90;;;;;;5049072;28;20620;-64
2023/08/03 04:47:38;;;;;;;16.38;9.25;;;15.90;99.90;;;;;;5066781;28;20044;-64
2023/08/03 04:50:04;;;;;;;19.98;9.88;;;15.90;99.90;;;;;;5049178;28;20098;-65
2023/08/03 04:52:29;;;;;;;21.30;10.13;;;15.90;99.90;;;;;;5047981;28;20140;-67
2023/08/03 04:54:55;;;;;;;19.30;9.65;;;15.90;99.90;;;;;;5038703;28;20450;-66
2023/08/03 04:57:20;;;;;;;21.45;9.77;;;15.90;99.90;;;;;;5027005;28;20511;-63
2023/08/03 04:59:46;;;;;;;26.67;10.35;;;16.00;99.90;;;;;;5063804;28;20087;-62
2023/08/03 05:02:11;;;;;;;22.55;9.70;;;16.00;99.90;;;;;;5047695;28;20400;-65
2023/08/03 05:04:37;;;;;;;24.70;10.63;;;16.00;99.90;;;;;;5066723;28;20170;-62
2023/08/03 05:07:03;;;;;;;22.35;9.18;;;16.00;99.90;;;;;;5046943;28;20048;-61
2023/08/03 05:09:29;;;;;;;23.85;9.60;;;16.10;99.90;;;;;;5046440;28;20043;-61
2023/08/03 05:11:57;;;;;;;20.92;9.00;;;16.10;99.90;;;;;;5045096;28;20045;-63
2023/08/03 05:14:23;;;;;;;22.17;8.65;;;16.20;99.90;;;;;;5046804;28;20040;-65
2023/08/03 05:16:48;;;;;;;22.55;9.13;;;16.20;99.90;;;;;;5031944;28;20450;-64
2023/08/03 05:19:14;;;;;;;30.05;9.10;;;16.20;99.90;;;;;;5028335;28;20135;-64
2023/08/03 05:21:40;;;;;;;14.05;7.05;;;16.20;99.90;;;;;;5028197;28;20041;-64
2023/08/03 05:24:05;;;;;;;14.07;5.03;;;16.20;99.90;;;;;;5029651;28;20044;-64
2023/08/03 05:26:34;;;;;;;16.33;5.68;;;16.20;99.90;;;;;;5045785;28;20178;-65
2023/08/03 05:29:00;;;;;;;15.90;6.00;;;16.20;99.90;;;;;;5037413;28;20044;-65
2023/08/03 05:31:26;;;;;;;12.02;5.43;;;16.20;99.90;;;;;;5028574;28;20384;-67
2023/08/03 05:33:54;;;;;;;12.13;5.18;;;16.20;99.90;;;;;;5028179;28;20028;-68
2023/08/03 05:36:19;;;;;;;17.88;6.15;;;16.20;99.90;;;;;;5030263;28;20487;-66
2023/08/03 05:38:45;;;;;;;14.55;5.22;;;16.20;99.90;;;;;;5063948;28;20055;-66
2023/08/03 05:41:22;;;;;;;11.57;4.75;;;16.20;99.90;;;;;;5046318;28;20048;-63
2023/08/03 05:43:48;;;;;;;12.68;4.47;;;16.20;99.90;;;;;;5057024;28;20049;-69
2023/08/03 05:46:15;;;;;;;10.88;4.35;;;16.20;99.90;;;;;;5044391;28;20044;-64
2023/08/03 05:48:41;;;;;;;10.73;5.10;;;16.10;99.90;;;;;;5028130;28;20072;-61
2023/08/03 05:51:13;;;;;;;15.70;4.57;;;16.10;99.90;;;;;;5045014;28;20034;-62
2023/08/03 05:53:40;;;;;;;13.50;4.85;;;16.10;99.90;;;;;;5047429;28;20448;-69
2023/08/03 05:56:10;;;;;;;11.88;4.80;;;16.10;99.90;;;;;;5063705;28;20836;-62
2023/08/03 05:58:36;;;;;;;13.15;5.18;;;16.10;99.90;;;;;;5058078;28;20053;-67
2023/08/03 06:01:02;;;;;;;12.30;4.90;;;16.10;99.90;;;;;;5045488;28;20090;-68
2023/08/03 06:03:31;;;;;;;14.77;5.20;;;16.10;99.90;;;;;;5027698;28;20400;-67
2023/08/03 06:06:03;;;;;;;14.32;5.85;;;16.10;99.90;;;;;;5027041;28;20551;-63
2023/08/03 06:08:29;;;;;;;14.98;6.70;;;16.10;99.90;;;;;;5026605;28;20045;-63
2023/08/03 06:10:57;;;;;;;13.88;5.90;;;16.10;99.90;;;;;;5042935;28;20126;-65
2023/08/03 06:13:26;;;;;;;14.95;6.30;;;16.10;99.90;;;;;;5064576;28;20075;-64
2023/08/03 06:15:52;;;;;;;14.48;5.68;;;16.10;99.90;;;;;;5065585;28;20044;-63
2023/08/03 06:18:19;;;;;;;13.13;6.43;;;16.10;99.90;;;;;;5064904;28;20468;-67
2023/08/03 06:20:47;;;;;;;18.02;6.13;;;16.20;99.90;;;;;;5064902;28;20049;-63
2023/08/03 06:23:17;;;;;;;13.68;6.68;;;16.20;99.90;;;;;;5064851;28;20040;-68
2023/08/03 06:25:44;;;;;;;14.40;5.72;;;16.20;99.90;;;;;;5062997;28;20055;-68
2023/08/03 06:28:11;;;;;;;15.07;6.13;;;16.20;99.90;;;;;;5063504;28;20162;-59
2023/08/03 06:30:36;;;;;;;14.68;7.07;;;16.30;99.90;;;;;;5065159;28;20036;-67
2023/08/03 06:33:02;;;;;;;12.63;5.97;;;16.30;99.90;;;;;;5065822;28;20047;-65
2023/08/03 06:35:37;;;;;;;13.60;6.03;;;16.30;99.90;;;;;;5046611;28;20046;-66
2023/08/03 06:38:08;;;;;;;14.15;6.45;;;16.30;99.90;;;;;;5063958;28;20037;-66
2023/08/03 06:40:34;;;;;;;15.23;5.93;;;16.30;99.90;;;;;;5063217;28;20048;-66
2023/08/03 06:43:04;;;;;;;12.20;5.85;;;16.40;99.90;;;;;;5063438;28;20382;-65
2023/08/03 06:45:31;;;;;;;11.57;5.05;;;16.40;99.90;;;;;;5046298;28;20056;-64
2023/08/03 06:48:01;;;;;;;18.45;6.07;;;16.40;99.90;;;;;;5045865;28;20037;-67
2023/08/03 06:50:31;;;;;;;10.52;5.32;;;16.50;99.90;;;;;;5062511;28;20044;-66
2023/08/03 06:52:57;;;;;;;11.00;5.38;;;16.50;99.90;;;;;;5044037;28;20101;-69
2023/08/03 06:55:23;;;;;;;11.85;5.57;;;16.50;99.90;;;;;;5061177;28;20048;-65
2023/08/03 06:57:49;;;;;;;11.07;5.03;;;16.50;99.90;;;;;;5062069;28;20036;-69
2023/08/03 07:00:15;;;;;;;12.32;4.65;;;16.70;99.90;;;;;;5045828;28;20663;-65
2023/08/03 07:02:42;;;;;;;11.25;5.05;;;16.70;99.90;;;;;;5063890;28;20056;-67
2023/08/03 07:05:08;;;;;;;9.75;4.20;;;16.70;99.90;;;;;;5046174;28;20517;-65
2023/08/03 07:07:34;;;;;;;8.52;3.78;;;16.80;99.90;;;;;;5045768;28;20044;-66
2023/08/03 07:10:00;;;;;;;10.70;3.88;;;16.70;99.90;;;;;;5062472;28;20041;-65
2023/08/03 07:12:26;;;;;;;8.88;4.13;;;16.70;99.90;;;;;;5045029;28;20084;-65
2023/08/03 07:14:52;;;;;;;11.15;4.20;;;16.80;99.90;;;;;;5045021;28;20044;-65
2023/08/03 07:17:17;;;;;;;8.15;3.55;;;16.90;99.90;;;;;;5046652;28;20032;-66
2023/08/03 07:19:44;;;;;;;10.45;4.10;;;17.10;99.90;;;;;;5063806;28;20070;-65
2023/08/03 07:22:09;;;;;;;10.90;3.95;;;17.10;99.90;;;;;;5043199;28;20072;-66
2023/08/03 07:24:36;;;;;;;6.30;2.70;;;17.20;99.90;;;;;;5032166;28;20033;-67
2023/08/03 07:27:02;;;;;;;6.80;2.53;;;17.30;99.90;;;;;;5044407;28;20068;-67
2023/08/03 07:29:29;;;;;;;6.63;2.20;;;17.30;99.90;;;;;;5028760;28;20044;-67
2023/08/03 07:31:56;;;;;;;6.43;2.40;;;17.40;99.90;;;;;;5064375;28;20040;-70
2023/08/03 07:34:22;;;;;;;5.50;2.20;;;17.40;99.90;;;;;;5064106;28;20040;-66
2023/08/03 07:36:52;;;;;;;7.47;2.35;;;17.50;99.90;;;;;;5028715;28;20447;-67
2023/08/03 07:39:18;;;;;;;5.78;1.90;;;17.60;99.90;;;;;;5025909;28;20040;-69
2023/08/03 07:41:43;;;;;;;5.13;1.80;;;17.60;99.90;;;;;;5024392;28;20495;-67
2023/08/03 07:44:09;;;;;;;5.18;2.08;;;17.70;99.90;;;;;;5037616;28;20044;-67
2023/08/03 07:46:34;;;;;;;4.82;1.70;;;17.80;99.90;;;;;;5045395;28;20052;-70
2023/08/03 07:49:00;;;;;;;5.53;2.10;;;17.80;99.90;;;;;;5045879;28;20422;-75
2023/08/03 07:51:25;;;;;;;6.55;2.00;;;17.80;99.90;;;;;;5029851;28;20115;-72
2023/08/03 07:53:51;;;;;;;4.53;2.00;;;17.80;99.90;;;;;;5045083;28;20042;-72
2023/08/03 07:56:21;;;;;;;5.80;1.90;;;17.80;99.90;;;;;;5043313;28;20052;-70
2023/08/03 07:58:48;;;;;;;5.97;1.70;;;17.70;99.90;;;;;;5065406;28;20052;-69
2023/08/03 08:01:15;;;;;;;6.25;1.98;;;17.70;99.90;;;;;;5049478;28;20044;-70
2023/08/03 08:03:42;;;;;;;6.15;1.92;;;17.70;99.90;;;;;;5033240;28;20044;-70
2023/08/03 08:06:09;;;;;;;5.45;1.60;;;17.80;99.90;;;;;;5028397;28;20040;-67
2023/08/03 08:08:35;;;;;;;4.53;1.50;;;17.80;99.90;;;;;;5045186;28;20405;-70
2023/08/03 08:11:01;;;;;;;4.32;1.40;;;17.90;99.90;;;;;;5038314;28;20032;-73
2023/08/03 08:13:27;;;;;;;4.78;1.48;;;18.10;99.90;;;;;;5037218;28;20499;-73
2023/08/03 08:16:01;;;;;;;6.35;1.52;;;18.10;99.90;;;;;;5059599;28;20032;-70
2023/08/03 08:18:27;;;;;;;5.10;1.73;;;18.30;99.90;;;;;;5041208;28;20037;-68
2023/08/03 08:20:59;;;;;;;5.20;1.13;;;18.50;99.90;;;;;;5025881;28;20101;-71
2023/08/03 08:23:25;;;;;;;5.32;1.30;;;18.90;99.90;;;;;;5051507;28;20525;-69
2023/08/03 08:25:50;;;;;;;7.68;1.35;;;19.50;99.90;;;;;;5037947;28;20071;-70
2023/08/03 08:28:16;;;;;;;9.32;1.33;;;20.00;99.90;;;;;;5045503;28;20041;-67
2023/08/03 08:30:42;;;;;;;5.53;1.33;;;20.00;99.90;;;;;;5056360;28;20535;-69
2023/08/03 08:33:08;;;;;;;5.60;1.30;;;19.90;99.90;;;;;;5048450;28;20115;-68
2023/08/03 08:35:33;;;;;;;7.25;1.30;;;19.80;99.90;;;;;;5066926;28;20342;-67
2023/08/03 08:37:59;;;;;;;6.15;1.13;;;19.60;99.90;;;;;;5066282;28;20040;-70
2023/08/03 08:40:26;;;;;;;5.28;1.10;;;19.50;99.90;;;;;;5038363;28;20745;-72
2023/08/03 08:42:53;;;;;;;6.38;1.33;;;19.40;99.90;;;;;;5047019;28;20737;-67
2023/08/03 08:45:19;;;;;;;7.18;1.15;;;19.30;99.90;;;;;;5066483;28;20472;-65
2023/08/03 08:47:45;;;;;;;5.57;1.40;;;19.30;99.90;;;;;;5047953;28;20431;-65
2023/08/03 08:50:11;;;;;;;7.07;1.20;;;19.40;99.90;;;;;;5034728;28;20807;-66
2023/08/03 08:52:41;;;;;;;9.60;1.35;;;19.40;99.90;;;;;;5048120;28;20041;-65
2023/08/03 08:55:27;;;;;;;4.68;1.08;;;19.30;99.90;;;;;;5061689;28;20040;-65
2023/08/03 08:57:54;;;;;;;3.60;0.90;;;19.30;99.90;;;;;;5034424;28;20399;-71
2023/08/03 09:00:20;;;;;;;5.15;1.00;;;19.30;99.90;;;;;;5048720;28;20036;-65
2023/08/03 09:02:47;;;;;;;8.25;1.33;;;19.10;99.90;;;;;;5028677;28;20060;-66
2023/08/03 09:05:20;;;;;;;9.02;1.17;;;19.10;99.90;;;;;;5022739;28;20117;-69
2023/08/03 09:08:04;;;;;;;6.10;1.23;;;19.10;99.90;;;;;;5046552;28;20423;-68
2023/08/03 09:10:51;;;;;;;5.90;1.20;;;19.10;99.90;;;;;;5064306;28;20107;-64
2023/08/03 09:13:31;;;;;;;5.97;1.02;;;19.20;99.90;;;;;;5035755;28;20040;-69
2023/08/03 09:15:58;;;;;;;3.72;1.00;;;19.40;99.90;;;;;;5047697;28;20714;-71
2023/08/03 09:18:27;;;;;;;6.30;1.20;;;19.50;99.90;;;;;;5066036;28;20072;-69
2023/08/03 09:21:11;;;;;;;6.57;1.45;;;19.60;99.90;;;;;;5056595;28;20051;-66
2023/08/03 09:23:37;;;;;;;6.28;1.00;;;19.70;99.90;;;;;;5034227;28;20045;-66
2023/08/03 09:26:06;;;;;;;5.68;1.30;;;19.80;99.90;;;;;;5043070;28;20093;-66
2023/08/03 09:28:42;;;;;;;5.50;1.00;;;20.00;99.90;;;;;;5050683;28;20044;-66
2023/08/03 09:31:10;;;;;;;4.32;0.98;;;20.10;99.90;;;;;;5034293;28;20114;-66
2023/08/03 09:33:36;;;;;;;4.53;1.15;;;20.00;99.90;;;;;;5065703;28;20111;-67
2023/08/03 09:36:11;;;;;;;6.00;1.20;;;19.90;99.90;;;;;;5045829;28;20507;-69
2023/08/03 09:38:40;;;;;;;7.90;1.63;;;19.80;99.90;;;;;;5047491;28;20519;-65
2023/08/03 09:41:08;;;;;;;6.75;1.17;;;19.70;99.90;;;;;;5061867;28;20052;-64
2023/08/03 09:43:34;;;;;;;5.20;1.38;;;19.90;99.90;;;;;;5046754;28;20056;-67
2023/08/03 09:46:01;;;;;;;10.05;1.40;;;20.00;99.90;;;;;;5064661;28;20111;-67
2023/08/03 09:48:27;;;;;;;7.15;1.58;;;20.10;99.90;;;;;;5046977;28;20040;-63
2023/08/03 09:50:58;;;;;;;8.55;1.50;;;20.10;99.90;;;;;;5063697;28;20036;-70
2023/08/03 09:53:26;;;;;;;5.47;1.20;;;20.10;99.90;;;;;;5044328;28;20079;-67
2023/08/03 09:56:00;;;;;;;7.63;1.45;;;20.10;99.90;;;;;;5044206;28;20033;-69
2023/08/03 09:58:33;;;;;;;5.63;1.38;;;20.10;99.90;;;;;;5042778;28;20106;-67
2023/08/03 10:01:01;;;;;;;6.38;1.30;;;20.00;99.90;;;;;;5064891;28;20040;-67
2023/08/03 10:03:29;;;;;;;4.85;1.40;;;19.90;99.90;;;;;;5049952;28;20087;-67
2023/08/03 10:06:12;;;;;;;5.00;1.38;;;19.90;99.90;;;;;;5032897;28;20040;-68
2023/08/03 10:08:53;;;;;;;7.47;1.50;;;19.90;99.90;;;;;;5064891;28;20040;-66
2023/08/03 10:11:20;;;;;;;6.65;1.25;;;19.80;99.90;;;;;;5045271;28;20466;-68
2023/08/03 10:13:47;;;;;;;9.02;1.70;;;19.80;99.90;;;;;;5044751;28;20175;-66
2023/08/03 10:16:16;;;;;;;4.95;1.30;;;19.90;99.90;;;;;;5029781;28;20046;-65
2023/08/03 10:18:43;;;;;;;8.13;1.80;;;20.00;99.90;;;;;;5037376;28;20123;-68
2023/08/03 10:21:10;;;;;;;8.50;1.63;;;20.10;99.90;;;;;;5040612;28;20090;-67
2023/08/03 10:23:38;;;;;;;5.72;1.35;;;20.20;99.90;;;;;;5062187;28;20048;-70
2023/08/03 10:26:08;;;;;;;6.25;1.48;;;20.40;99.90;;;;;;5043722;28;20216;-66
2023/08/03 10:28:40;;;;;;;11.18;2.10;;;20.50;99.90;;;;;;5061496;28;20519;-66
2023/08/03 10:31:19;;;;;;;8.80;2.08;;;20.60;99.90;;;;;;5044275;28;20068;-66
2023/08/03 10:33:49;;;;;;;7.95;1.67;;;20.70;99.90;;;;;;5064734;28;20051;-70
2023/08/03 10:36:35;;;;;;;4.75;1.40;;;20.80;99.90;;;;;;5047499;28;20047;-66
2023/08/03 10:39:07;;;;;;;6.57;1.50;;;20.90;99.90;;;;;;5062832;28;20128;-65
2023/08/03 10:41:38;;;;;;;8.57;1.75;;;20.80;99.90;;;;;;5045419;28;20135;-68
2023/08/03 10:44:09;;;;;;;8.13;1.98;;;20.80;99.90;;;;;;5064056;28;20036;-64
2023/08/03 10:46:39;;;;;;;7.28;1.38;;;20.90;99.90;;;;;;5046592;28;20048;-73
2023/08/03 10:49:21;;;;;;;10.07;1.40;;;21.00;99.90;;;;;;5046277;28;20458;-66
2023/08/03 10:51:55;;;;;;;8.55;1.60;;;21.30;99.90;;;;;;5047124;28;20048;-64
2023/08/03 10:54:28;;;;;;;6.20;1.50;;;21.50;99.90;;;;;;5064050;28;20609;-67
2023/08/03 10:57:06;;;;;;;6.32;1.30;;;21.60;99.90;;;;;;5063004;28;20675;-71
2023/08/03 10:59:58;;;;;;;7.13;1.40;;;21.60;99.90;;;;;;5062938;28;20044;-66
2023/08/03 11:02:31;;;;;;;5.20;1.27;;;21.50;99.90;;;;;;5046085;28;20067;-70
2023/08/03 11:05:07;;;;;;;5.63;1.35;;;21.30;99.90;;;;;;5046680;28;20334;-65
2023/08/03 11:07:44;;;;;;;5.63;1.30;;;21.20;99.90;;;;;;5064664;28;20123;-68
2023/08/03 11:10:11;;;;;;;6.43;1.33;;;21.30;99.90;;;;;;5046180;28;20051;-65
2023/08/03 11:12:38;;;;;;;11.05;1.95;;;21.30;99.90;;;;;;5030421;28;20048;-65
2023/08/03 11:15:06;;;;;;;7.97;2.10;;;21.30;99.90;;;;;;5045854;28;20051;-64
2023/08/03 11:17:33;;;;;;;9.10;2.22;;;21.20;99.90;;;;;;5045783;28;20028;-67
2023/08/03 11:20:00;;;;;;;12.43;2.80;;;21.00;99.90;;;;;;5046308;28;20411;-63
2023/08/03 11:22:27;;;;;;;13.38;2.25;;;20.80;99.90;;;;;;5029938;28;20058;-66
2023/08/03 11:24:56;;;;;;;12.98;2.33;;;20.60;99.90;;;;;;5045059;28;20094;-69
2023/08/03 11:27:23;;;;;;;10.63;2.22;;;20.40;99.90;;;;;;5045553;28;20075;-65
2023/08/03 11:29:50;;;;;;;11.70;2.25;;;20.20;99.90;;;;;;5029472;28;20033;-67
2023/08/03 11:32:26;;;;;;;10.65;2.20;;;20.10;99.90;;;;;;5047702;28;20410;-67
2023/08/03 11:35:03;;;;;;;12.27;2.20;;;20.00;99.90;;;;;;5053137;28;20051;-66
2023/08/03 11:37:30;;;;;;;10.18;2.30;;;20.00;99.90;;;;;;5035837;28;20176;-69
2023/08/03 11:39:56;;;;;;;9.00;2.13;;;19.90;99.90;;;;;;5052038;28;20507;-69
2023/08/03 11:42:22;;;;;;;8.25;2.10;;;19.90;99.90;;;;;;5051762;28;20119;-68
2023/08/03 11:44:48;;;;;;;7.75;1.88;;;19.80;99.90;;;;;;5052688;28;20426;-69
2023/08/03 11:47:13;;;;;;;8.40;1.83;;;19.80;99.90;;;;;;5070444;28;20044;-69
2023/08/03 11:49:39;;;;;;;9.07;1.65;;;19.80;99.90;;;;;;5052640;28;20670;-68
2023/08/03 11:52:05;;;;;;;8.65;1.70;;;19.80;99.90;;;;;;5036179;28;20123;-68
2023/08/03 11:54:37;;;;;;;6.20;1.30;;;19.80;99.90;;;;;;5067059;28;20877;-66
2023/08/03 11:59:49;;;;;;;8.10;1.48;;;20.10;99.90;;;;;;5048328;28;20060;-65
2023/08/03 12:02:15;;;;;;;9.75;1.60;;;20.20;99.90;;;;;;5052799;28;20064;-71
2023/08/03 12:04:41;;;;;;;5.03;1.20;;;20.30;99.90;;;;;;5034431;28;20076;-65
2023/08/03 12:07:07;;;;;;;7.47;2.10;;;20.30;99.90;;;;;;5050516;28;20474;-67
2023/08/03 12:09:38;;;;;;;8.23;1.85;;;20.30;99.90;;;;;;5048177;28;20124;-71
2023/08/03 12:12:11;;;;;;;6.30;1.30;;;20.30;99.90;;;;;;5069332;28;20097;-73
2023/08/03 12:14:37;;;;;;;6.38;1.08;;;20.30;99.90;;;;;;5070531;28;20750;-66
2023/08/03 12:17:09;;;;;;;5.35;1.20;;;20.40;99.90;;;;;;5070747;28;20036;-68
2023/08/03 12:19:34;;;;;;;7.18;1.33;;;20.60;99.90;;;;;;5071072;28;20461;-64
2023/08/03 12:22:01;;;;;;;6.68;1.10;;;20.70;99.90;;;;;;5035507;28;20044;-71
2023/08/03 12:24:28;;;;;;;5.00;1.00;;;20.80;99.90;;;;;;5069409;28;20579;-66
2023/08/03 12:26:53;;;;;;;4.13;1.00;;;21.00;99.90;;;;;;5050623;28;20086;-63
2023/08/03 12:29:23;;;;;;;5.18;1.08;;;21.10;99.90;;;;;;5051920;28;20044;-68
2023/08/03 12:31:49;;;;;;;5.03;1.10;;;21.10;99.90;;;;;;5053177;28;20048;-70
2023/08/03 12:34:15;;;;;;;5.32;1.20;;;21.20;99.90;;;;;;5035842;28;20117;-63
2023/08/03 12:36:40;;;;;;;4.75;1.10;;;21.20;99.90;;;;;;5065991;28;20407;-69
2023/08/03 12:39:09;;;;;;;5.28;1.33;;;21.20;99.90;;;;;;5033171;28;20047;-66
2023/08/03 12:41:35;;;;;;;7.72;1.45;;;21.20;99.90;;;;;;5069115;28;20519;-68
2023/08/03 12:44:01;;;;;;;7.40;1.95;;;21.20;99.90;;;;;;5034512;28;20048;-64
2023/08/03 12:46:26;;;;;;;7.78;1.58;;;21.20;99.90;;;;;;5067176;28;20039;-70